Time;durP1;ratioP1;P1;durP2;ratioP2;P2;SDS_P1;SDS_P2;PMS_P1;PMS_P2;Temp;Humidity;BMP_temperature;BMP_pressure;BME280_temperature;BME280_humidity;BME280_pressure;Samples;Min_cycle;Max_cycle;Signal;HPM_P1;HPM_P2
2022/04/17 00:00:22;;;;;;;11.15;9.07;;;;;;;15.44;52.42;99065.72;5111976;28;23271;-70
2022/04/17 00:02:48;;;;;;;13.35;9.57;;;;;;;15.63;52.21;99070.47;5105096;28;20031;-70
2022/04/17 00:05:13;;;;;;;11.65;9.45;;;;;;;15.72;51.56;99059.72;5113306;28;20036;-71
2022/04/17 00:07:39;;;;;;;16.67;9.38;;;;;;;15.95;51.07;99056.03;5113379;28;20031;-70
2022/04/17 00:10:08;;;;;;;9.65;8.50;;;;;;;16.15;49.83;99058.72;5113156;28;20019;-71
2022/04/17 00:12:34;;;;;;;10.25;8.27;;;;;;;16.25;49.88;99060.06;5111079;28;20508;-70
2022/04/17 00:15:00;;;;;;;11.77;7.85;;;;;;;16.12;48.48;99065.94;5114007;28;20059;-71
2022/04/17 00:17:26;;;;;;;11.13;8.43;;;;;;;15.86;49.31;99059.13;5113399;28;20032;-71
2022/04/17 00:19:51;;;;;;;10.25;8.32;;;;;;;15.75;49.80;99049.69;5113741;28;20114;-70
2022/04/17 00:22:17;;;;;;;15.75;8.45;;;;;;;15.89;49.97;99053.91;5095475;28;20036;-71
2022/04/17 00:24:43;;;;;;;11.77;8.75;;;;;;;15.62;49.33;99060.38;5094585;28;20054;-71
2022/04/17 00:27:09;;;;;;;13.43;9.38;;;;;;;15.25;50.46;99053.38;5094427;28;20047;-70
2022/04/17 00:29:35;;;;;;;11.40;8.60;;;;;;;15.01;51.32;99058.19;5113284;28;20027;-71
2022/04/17 00:32:01;;;;;;;11.25;8.68;;;;;;;14.87;52.26;99060.75;5109128;28;20052;-70
2022/04/17 00:34:29;;;;;;;9.15;7.75;;;;;;;15.02;50.63;99065.44;5113408;28;20027;-70
2022/04/17 00:36:59;;;;;;;10.07;7.07;;;;;;;15.18;50.50;99067.31;5113072;28;20031;-71
2022/04/17 00:39:25;;;;;;;9.45;7.93;;;;;;;15.53;49.40;99068.31;5112795;28;20488;-71
2022/04/17 00:41:51;;;;;;;11.38;7.75;;;;;;;15.57;48.83;99064.34;5112722;28;20031;-70
2022/04/17 00:44:16;;;;;;;10.68;7.60;;;;;;;15.70;48.62;99047.22;5113195;28;20033;-70
2022/04/17 00:46:42;;;;;;;9.68;7.55;;;;;;;15.81;48.38;99056.66;5112496;28;20061;-71
2022/04/17 00:49:07;;;;;;;8.75;7.28;;;;;;;15.85;48.33;99054.69;5094887;28;20031;-70
2022/04/17 00:51:35;;;;;;;11.55;7.47;;;;;;;15.89;47.97;99053.91;5112663;28;20035;-71
2022/04/17 00:54:03;;;;;;;19.77;8.00;;;;;;;16.05;47.13;99060.22;5094927;28;20038;-70
2022/04/17 00:56:30;;;;;;;13.02;7.20;;;;;;;15.97;46.63;99050.84;5112900;28;20089;-71
2022/04/17 00:58:56;;;;;;;11.82;6.70;;;;;;;16.21;46.07;99051.53;5094460;28;20035;-71
2022/04/17 01:01:22;;;;;;;7.88;6.72;;;;;;;16.08;46.20;99053.81;5112695;28;20068;-71
2022/04/17 01:03:49;;;;;;;9.30;6.80;;;;;;;16.16;46.06;99054.72;5094619;28;20038;-71
2022/04/17 01:06:15;;;;;;;8.48;6.32;;;;;;;16.22;45.81;99056.00;5113126;28;20028;-71
2022/04/17 01:08:41;;;;;;;7.50;6.80;;;;;;;16.03;46.32;99045.66;5094659;28;20032;-71
2022/04/17 01:11:11;;;;;;;8.80;6.72;;;;;;;15.70;46.69;99036.75;5111898;28;20397;-71
2022/04/17 01:13:41;;;;;;;;;;;;;;;15.78;46.53;99039.66;5112307;28;20033;-71
2022/04/17 01:16:07;;;;;;;7.60;6.70;;;;;;;15.91;46.31;99037.44;5112864;28;19935;-71
2022/04/17 01:18:52;;;;;;;7.15;6.43;;;;;;;16.04;45.97;99047.28;5112636;28;20505;-71
2022/04/17 01:21:18;;;;;;;7.35;6.28;;;;;;;16.02;45.97;99029.94;5111439;28;20042;-71
2022/04/17 01:29:11;;;;;;;8.13;6.30;;;;;;;15.65;46.25;99019.34;5112767;28;20037;-71
2022/04/17 01:31:37;;;;;;;7.38;6.65;;;;;;;15.85;46.08;99023.66;5112471;28;20553;-71
2022/04/17 01:34:02;;;;;;;8.75;6.80;;;;;;;15.94;45.91;99025.44;5094504;28;20035;-71
2022/04/17 01:36:28;;;;;;;7.47;6.53;;;;;;;15.99;45.49;99027.91;5093782;28;20036;-71
2022/04/17 01:38:53;;;;;;;8.18;6.35;;;;;;;16.00;45.66;99032.34;5112413;28;20055;-71
2022/04/17 01:41:19;;;;;;;10.43;6.55;;;;;;;16.02;45.42;99038.41;5105836;28;20100;-71
2022/04/17 01:43:44;;;;;;;8.13;6.53;;;;;;;16.09;45.53;99032.88;5092938;28;20024;-71
2022/04/17 01:46:10;;;;;;;8.18;6.05;;;;;;;16.09;45.20;99032.03;5112415;28;20031;-71
2022/04/17 01:48:35;;;;;;;9.30;6.75;;;;;;;16.16;45.30;99031.31;5093997;28;20066;-70
2022/04/17 01:51:01;;;;;;;9.10;6.90;;;;;;;16.09;45.02;99037.69;5093949;28;20031;-71
2022/04/17 01:53:27;;;;;;;8.05;6.65;;;;;;;16.11;45.25;99029.69;5112320;28;20473;-71
2022/04/17 01:55:52;;;;;;;8.05;7.25;;;;;;;16.21;45.43;99017.69;5112279;28;20072;-70
2022/04/17 01:58:18;;;;;;;11.70;7.05;;;;;;;16.28;45.43;99014.13;5093733;28;20466;-71
2022/04/17 02:00:43;;;;;;;9.13;6.80;;;;;;;16.34;46.05;99015.44;5111363;28;20066;-71
2022/04/17 02:03:08;;;;;;;12.32;7.22;;;;;;;16.28;45.19;99011.31;5092683;28;20023;-71
2022/04/17 02:05:34;;;;;;;11.02;8.23;;;;;;;16.20;44.71;99010.41;5112050;28;20032;-71
2022/04/17 02:07:59;;;;;;;10.52;7.60;;;;;;;16.24;45.27;99008.47;5112044;28;20054;-71
2022/04/17 02:10:25;;;;;;;12.23;7.43;;;;;;;16.23;44.88;99001.22;5111441;28;20419;-71
2022/04/17 02:12:51;;;;;;;11.38;7.38;;;;;;;16.29;44.97;99021.44;5093684;28;20043;-71
2022/04/17 02:15:16;;;;;;;12.90;7.38;;;;;;;16.27;44.78;99018.97;5111793;28;20031;-71
2022/04/17 02:17:42;;;;;;;8.15;6.55;;;;;;;16.24;45.02;99016.94;5093679;28;20031;-71
2022/04/17 02:20:10;;;;;;;9.73;6.60;;;;;;;16.32;44.79;99012.19;5092964;28;20080;-71
2022/04/17 02:22:36;;;;;;;14.98;7.32;;;;;;;16.22;44.05;99018.50;5090576;28;20527;-71
2022/04/17 02:25:01;;;;;;;12.43;7.32;;;;;;;16.29;44.16;99015.78;5111430;28;20027;-70
2022/04/17 02:27:27;;;;;;;7.72;6.45;;;;;;;16.30;44.27;99022.22;5111633;28;20020;-71
2022/04/17 02:29:52;;;;;;;9.82;7.80;;;;;;;16.28;44.80;99017.78;5092838;28;20027;-70
2022/04/17 02:32:18;;;;;;;12.77;8.48;;;;;;;16.36;44.70;99015.06;5112553;28;20035;-71
2022/04/17 02:34:43;;;;;;;9.20;8.18;;;;;;;16.31;44.89;99010.56;5115038;28;20038;-71
2022/04/17 02:37:09;;;;;;;9.27;8.30;;;;;;;16.33;45.11;99015.81;5115367;28;20024;-71
2022/04/17 02:39:35;;;;;;;9.90;7.97;;;;;;;16.34;45.02;99015.44;5097065;28;20031;-71
2022/04/17 02:42:01;;;;;;;10.18;8.18;;;;;;;16.29;45.05;99010.16;5115107;28;20031;-70
2022/04/17 02:44:26;;;;;;;9.32;8.43;;;;;;;16.26;45.24;99016.53;5097299;28;20019;-71
2022/04/17 02:49:35;;;;;;;11.02;9.10;;;;;;;16.19;44.85;98999.53;5115778;28;20026;-71
2022/04/17 02:52:01;;;;;;;10.70;9.18;;;;;;;16.17;46.05;98990.63;5115569;28;20028;-71
2022/04/17 02:54:26;;;;;;;13.55;10.90;;;;;;;16.17;45.97;98994.28;5096625;28;20055;-71
2022/04/17 02:56:52;;;;;;;11.52;10.05;;;;;;;16.18;46.25;98993.06;5097355;28;20047;-71
2022/04/17 02:59:17;;;;;;;13.95;9.80;;;;;;;16.14;46.01;98997.88;5095469;28;20048;-71
2022/04/17 03:07:11;;;;;;;11.57;10.30;;;;;;;15.79;45.76;98994.16;5115602;28;20066;-71
2022/04/17 03:09:37;;;;;;;12.95;9.57;;;;;;;15.78;46.09;98994.56;5096425;28;20019;-71
2022/04/17 03:12:03;;;;;;;12.98;9.63;;;;;;;15.77;46.64;99005.00;5097069;28;20055;-71
2022/04/17 03:14:28;;;;;;;14.27;9.63;;;;;;;15.81;46.31;99005.88;5114995;28;20024;-71
2022/04/17 03:16:54;;;;;;;13.60;8.32;;;;;;;15.90;46.87;99008.44;5115239;28;20028;-71
2022/04/17 03:19:19;;;;;;;10.70;9.27;;;;;;;15.81;46.45;99013.53;5115034;28;20662;-71
2022/04/17 03:21:45;;;;;;;12.30;9.20;;;;;;;15.76;46.38;99020.31;5114346;28;20050;-71
2022/04/17 03:24:12;;;;;;;12.98;10.35;;;;;;;15.74;47.40;99019.88;5096368;28;20646;-71
2022/04/17 03:26:41;;;;;;;14.25;10.63;;;;;;;15.68;46.71;99022.22;5096206;28;20445;-71
2022/04/17 03:29:06;;;;;;;16.27;11.93;;;;;;;15.73;47.17;99021.88;5114421;28;20028;-71
2022/04/17 03:31:32;;;;;;;22.52;12.10;;;;;;;15.72;47.08;99022.28;5114464;28;20095;-70
2022/04/17 03:33:57;;;;;;;18.00;11.48;;;;;;;15.52;47.00;99028.00;5096275;28;20019;-71
2022/04/17 03:36:23;;;;;;;15.52;10.30;;;;;;;15.46;47.63;99023.91;5108202;28;20138;-70
2022/04/17 03:38:48;;;;;;;19.83;10.55;;;;;;;15.40;47.46;99031.03;5106199;28;20054;-70
2022/04/17 03:41:14;;;;;;;18.33;9.25;;;;;;;15.29;47.76;99030.88;5113998;28;20488;-71
2022/04/17 03:43:39;;;;;;;17.38;8.63;;;;;;;15.36;47.89;99041.47;5113588;28;20133;-70
2022/04/17 03:46:05;;;;;;;25.40;8.90;;;;;;;15.28;48.33;99046.16;5114329;28;20020;-71
2022/04/17 03:48:30;;;;;;;19.10;9.98;;;;;;;15.12;48.59;99046.31;5112846;28;20028;-71
2022/04/17 03:50:56;;;;;;;15.43;9.93;;;;;;;14.93;49.20;99047.97;5114174;28;20041;-71
2022/04/17 03:53:21;;;;;;;22.10;10.93;;;;;;;14.93;49.10;99047.97;5095902;28;20020;-71
2022/04/17 03:55:47;;;;;;;13.75;10.60;;;;;;;15.09;49.28;99044.25;5114595;28;20505;-71
2022/04/17 03:58:12;;;;;;;18.00;12.32;;;;;;;15.04;49.16;99048.19;5114111;28;20078;-71
2022/04/17 04:00:38;;;;;;;13.57;10.95;;;;;;;15.12;49.18;99043.50;5095477;28;20027;-71
2022/04/17 04:03:04;;;;;;;19.58;12.10;;;;;;;15.11;49.46;99050.31;5114235;28;20485;-71
2022/04/17 04:05:29;;;;;;;23.88;12.73;;;;;;;14.95;50.54;99051.22;5113990;28;20027;-71
2022/04/17 04:07:55;;;;;;;15.18;10.85;;;;;;;14.93;50.73;99055.63;5095635;28;20624;-71
2022/04/17 04:10:20;;;;;;;20.73;10.63;;;;;;;15.08;50.91;99043.41;5114023;28;20020;-71
2022/04/17 04:12:46;;;;;;;20.30;11.90;;;;;;;15.05;50.98;99051.81;5094597;28;20554;-71
2022/04/17 04:15:11;;;;;;;29.25;13.15;;;;;;;14.89;52.46;99041.47;5113871;28;20034;-70
2022/04/17 04:17:37;;;;;;;30.92;12.13;;;;;;;14.94;52.21;99058.06;5113897;28;20024;-70
2022/04/17 04:20:05;;;;;;;26.35;16.45;;;;;;;14.88;54.32;99063.19;5113586;28;20478;-71
2022/04/17 04:22:30;;;;;;;20.45;13.15;;;;;;;14.47;54.90;99068.41;5113900;28;20502;-71
2022/04/17 04:24:56;;;;;;;39.03;24.77;;;;;;;14.52;54.93;99070.91;5095412;28;20073;-71
2022/04/17 04:30:06;;;;;;;28.65;23.00;;;;;;;14.51;57.44;99071.31;5112386;28;20022;-71
2022/04/17 04:32:31;;;;;;;26.88;16.20;;;;;;;14.29;57.97;99071.66;5113267;28;20027;-70
2022/04/17 04:35:00;;;;;;;31.88;16.17;;;;;;;14.28;58.94;99072.84;5106334;28;20027;-70
2022/04/17 04:37:26;;;;;;;19.25;16.25;;;;;;;14.32;59.82;99075.75;5093229;28;20028;-70
2022/04/17 04:39:52;;;;;;;17.30;12.82;;;;;;;14.17;60.62;99080.25;5113208;28;20043;-70
2022/04/17 04:42:21;;;;;;;13.98;11.05;;;;;;;14.21;59.51;99077.50;5092229;28;20027;-70
2022/04/17 04:44:47;;;;;;;18.48;13.02;;;;;;;14.31;61.39;99077.75;5090101;28;20055;-72
2022/04/17 04:47:13;;;;;;;28.73;17.00;;;;;;;14.44;61.58;99080.41;5110006;28;20054;-68
2022/04/17 04:49:39;;;;;;;28.50;14.50;;;;;;;14.46;61.52;99083.66;5094757;28;20012;-72
2022/04/17 04:52:06;;;;;;;29.15;14.07;;;;;;;14.43;60.38;99078.78;5095108;28;20028;-77
2022/04/17 04:54:31;;;;;;;16.95;13.10;;;;;;;14.24;64.16;99079.59;5094837;28;20512;-73
2022/04/17 04:56:58;;;;;;;18.67;12.38;;;;;;;14.14;63.74;99093.06;5094953;28;20023;-72
2022/04/17 04:59:23;;;;;;;19.88;11.80;;;;;;;14.00;64.14;99087.13;5113373;28;20028;-70
2022/04/17 05:01:50;;;;;;;19.90;10.88;;;;;;;13.81;65.27;99085.91;5094624;28;20111;-68
2022/04/17 05:04:20;;;;;;;14.13;10.82;;;;;;;13.88;65.77;99088.06;5112659;28;20023;-69
2022/04/17 05:06:45;;;;;;;17.30;11.50;;;;;;;13.92;65.38;99091.75;5113131;28;20020;-69
2022/04/17 05:09:11;;;;;;;16.17;13.63;;;;;;;13.73;67.37;99095.34;5094110;28;20066;-69
2022/04/17 05:11:38;;;;;;;22.95;14.52;;;;;;;13.69;67.82;99097.25;5093732;28;20031;-69
2022/04/17 05:14:09;;;;;;;17.02;13.50;;;;;;;13.79;67.93;99102.31;5111417;28;20054;-69
2022/04/17 05:16:35;;;;;;;19.92;15.73;;;;;;;13.66;68.41;99110.03;5099207;28;20409;-69
2022/04/17 05:19:19;;;;;;;21.17;15.27;;;;;;;13.66;68.53;99114.84;5103966;28;20106;-69
2022/04/17 05:21:47;;;;;;;22.80;15.10;;;;;;;13.60;68.92;99108.69;5110351;28;20106;-69
2022/04/17 05:24:16;;;;;;;25.25;17.50;;;;;;;13.73;69.35;99115.00;5092415;28;20104;-69
2022/04/17 05:26:42;;;;;;;29.80;18.60;;;;;;;13.76;69.08;99108.69;5110546;28;20027;-69
2022/04/17 05:29:07;;;;;;;40.65;20.00;;;;;;;13.62;68.06;99107.13;5111208;28;20062;-69
2022/04/17 05:31:33;;;;;;;20.67;17.00;;;;;;;13.65;68.53;99113.22;5111030;28;20391;-69
2022/04/17 05:33:58;;;;;;;22.23;13.90;;;;;;;13.55;69.33;99108.97;5095907;28;20026;-69
2022/04/17 05:36:24;;;;;;;18.17;13.60;;;;;;;13.52;70.20;99118.97;5111848;28;20063;-69
2022/04/17 05:38:53;;;;;;;21.65;12.98;;;;;;;13.50;70.29;99126.91;5093296;28;20023;-68
2022/04/17 05:41:26;;;;;;;20.13;13.85;;;;;;;13.37;71.05;99116.91;5111605;28;20023;-69
2022/04/17 05:43:53;;;;;;;16.77;12.60;;;;;;;13.37;71.83;99117.75;5111314;28;20382;-69
2022/04/17 05:46:19;;;;;;;18.98;13.05;;;;;;;13.29;73.74;99118.72;5092674;28;20037;-68
2022/04/17 05:48:45;;;;;;;15.57;12.70;;;;;;;13.15;72.89;99122.81;5093265;28;20023;-68
2022/04/17 05:51:10;;;;;;;13.70;11.40;;;;;;;12.80;74.99;99128.28;5109476;28;20028;-68
2022/04/17 05:53:36;;;;;;;14.25;10.85;;;;;;;12.60;76.20;99128.94;5108090;28;20028;-68
2022/04/17 05:56:04;;;;;;;15.32;11.63;;;;;;;12.48;77.68;99123.38;5111594;28;20019;-68
2022/04/17 05:58:30;;;;;;;16.17;10.80;;;;;;;12.21;78.27;99129.44;5110692;28;20425;-68
2022/04/17 06:00:56;;;;;;;15.55;12.43;;;;;;;12.27;79.14;99130.00;5110992;28;20030;-67
2022/04/17 06:03:22;;;;;;;22.10;13.38;;;;;;;12.24;79.41;99127.09;5110689;28;20031;-67
2022/04/17 06:05:48;;;;;;;18.77;13.00;;;;;;;12.09;80.21;99126.66;5108021;28;20059;-68
2022/04/17 06:08:14;;;;;;;18.63;12.98;;;;;;;11.93;81.60;99124.53;5093529;28;20157;-68
2022/04/17 06:10:39;;;;;;;18.90;14.55;;;;;;;11.79;82.11;99121.28;5085137;28;20034;-65
2022/04/17 06:13:04;;;;;;;22.27;14.95;;;;;;;11.79;82.08;99118.50;5091117;28;20031;-69
2022/04/17 06:15:30;;;;;;;16.98;12.63;;;;;;;11.78;81.85;99117.69;5091122;28;20048;-71
2022/04/17 06:17:55;;;;;;;16.83;12.93;;;;;;;11.77;82.64;99106.81;5106518;28;20023;-69
2022/04/17 06:20:21;;;;;;;17.02;13.38;;;;;;;11.86;82.71;99115.94;5108420;28;20100;-70
2022/04/17 06:22:46;;;;;;;21.25;14.05;;;;;;;11.88;83.27;99113.59;5109195;28;20084;-71
2022/04/17 06:25:14;;;;;;;21.77;14.00;;;;;;;11.82;83.58;99112.16;5107701;28;20035;-72
2022/04/17 06:27:45;;;;;;;21.75;14.43;;;;;;;11.74;83.46;99113.13;5090023;28;20019;-68
2022/04/17 06:30:19;;;;;;;20.23;13.13;;;;;;;11.82;83.53;99119.78;5106951;28;20117;-71
2022/04/17 06:32:45;;;;;;;24.40;15.25;;;;;;;11.80;84.32;99117.31;5102157;28;20032;-70
2022/04/17 06:35:13;;;;;;;22.13;16.83;;;;;;;11.71;84.95;99113.84;5107755;28;20031;-70
2022/04/17 06:37:46;;;;;;;19.25;14.32;;;;;;;11.69;84.38;99111.38;5090994;28;20031;-70
2022/04/17 06:40:14;;;;;;;18.70;13.75;;;;;;;11.64;85.99;99122.81;5109283;28;20036;-72
2022/04/17 06:42:39;;;;;;;16.75;14.45;;;;;;;11.67;85.69;99119.34;5109934;28;20094;-70
2022/04/17 06:45:05;;;;;;;17.45;13.80;;;;;;;11.72;83.97;99109.88;5091319;28;20039;-71
2022/04/17 06:47:31;;;;;;;18.88;14.18;;;;;;;11.50;84.99;99115.59;5109948;28;20127;-70
2022/04/17 06:49:56;;;;;;;25.33;14.90;;;;;;;11.54;85.53;99112.91;5110447;28;20020;-71
2022/04/17 06:52:22;;;;;;;20.05;14.40;;;;;;;11.49;84.75;99115.94;5093206;28;20042;-71
2022/04/17 06:54:47;;;;;;;21.20;14.98;;;;;;;11.26;85.99;99127.59;5111824;28;20020;-73
2022/04/17 06:57:13;;;;;;;19.23;15.85;;;;;;;11.18;87.14;99122.91;5111539;28;20163;-70
2022/04/17 06:59:39;;;;;;;22.73;16.30;;;;;;;11.16;87.37;99133.66;5111403;28;20500;-72
2022/04/17 07:02:06;;;;;;;23.27;18.33;;;;;;;11.28;88.53;99128.06;5092957;28;20020;-73
2022/04/17 07:04:31;;;;;;;21.95;15.55;;;;;;;11.38;86.53;99133.22;5093363;28;20023;-72
2022/04/17 07:06:57;;;;;;;21.67;14.65;;;;;;;11.59;85.68;99129.50;5093165;28;20378;-73
2022/04/17 07:09:22;;;;;;;21.10;14.85;;;;;;;11.29;85.30;99126.91;5111292;28;20442;-72
2022/04/17 07:11:48;;;;;;;23.17;17.80;;;;;;;11.46;85.51;99134.25;5092306;28;20411;-69
2022/04/17 07:14:14;;;;;;;25.05;18.48;;;;;;;11.39;89.35;99134.00;5110367;28;20020;-70
2022/04/17 07:16:42;;;;;;;25.73;18.85;;;;;;;11.38;89.01;99136.00;5111259;28;20016;-73
2022/04/17 07:19:07;;;;;;;23.75;17.92;;;;;;;11.46;90.20;99139.88;5109710;28;20520;-70
2022/04/17 07:21:33;;;;;;;38.47;23.65;;;;;;;11.81;92.67;99127.34;5113374;28;20032;-71
2022/04/17 07:23:58;;;;;;;28.13;21.15;;;;;;;11.68;88.03;99139.75;5114797;28;20106;-73
2022/04/17 07:26:24;;;;;;;84.93;26.40;;;;;;;11.82;93.74;99136.59;5114243;28;20446;-72
2022/04/17 07:28:49;;;;;;;23.38;18.48;;;;;;;11.61;87.94;99155.16;5108754;28;20120;-70
2022/04/17 07:31:15;;;;;;;22.23;16.77;;;;;;;11.54;88.70;99146.50;5114818;28;20379;-69
2022/04/17 07:33:41;;;;;;;24.95;17.95;;;;;;;11.34;87.11;99151.06;5114952;28;20047;-73
2022/04/17 07:36:06;;;;;;;27.63;19.90;;;;;;;11.30;88.46;99150.94;5114616;28;20072;-73
2022/04/17 07:38:32;;;;;;;24.70;18.67;;;;;;;11.44;88.86;99144.16;5114335;28;20024;-69
2022/04/17 07:40:57;;;;;;;25.00;18.60;;;;;;;11.27;87.97;99150.78;5113838;28;20047;-72
2022/04/17 07:43:23;;;;;;;28.02;22.52;;;;;;;11.46;89.01;99147.44;5114041;28;20020;-74
2022/04/17 07:45:48;;;;;;;32.22;25.15;;;;;;;11.41;89.95;99137.31;5096125;28;20043;-73
2022/04/17 07:48:14;;;;;;;28.92;21.17;;;;;;;11.36;87.91;99145.91;5114407;28;20405;-69
2022/04/17 07:50:39;;;;;;;31.48;23.25;;;;;;;11.34;88.93;99146.28;5114338;28;20028;-69
2022/04/17 07:53:05;;;;;;;28.83;20.02;;;;;;;11.23;88.72;99140.31;5095745;28;20058;-74
2022/04/17 07:55:30;;;;;;;36.15;25.58;;;;;;;11.31;90.40;99135.75;5114698;28;20061;-72
2022/04/17 07:58:14;;;;;;;24.92;19.75;;;;;;;11.34;90.27;99151.06;5092619;28;20074;-73
2022/04/17 08:00:47;;;;;;;24.20;18.50;;;;;;;11.21;89.27;99153.00;5074898;28;20032;-71
2022/04/17 08:03:21;;;;;;;27.17;18.70;;;;;;;11.16;89.47;99144.84;5089931;28;20394;-69
2022/04/17 08:05:47;;;;;;;24.70;19.08;;;;;;;11.13;88.38;99137.94;5094037;28;20069;-68
2022/04/17 08:08:12;;;;;;;30.63;19.50;;;;;;;11.09;89.94;99132.22;5082200;28;20128;-72
2022/04/17 08:10:38;;;;;;;28.70;19.70;;;;;;;11.16;89.80;99125.25;5092222;28;20028;-71
2022/04/17 08:13:05;;;;;;;33.80;22.38;;;;;;;11.22;89.75;99115.44;5093676;28;20201;-75
2022/04/17 08:15:30;;;;;;;31.15;21.63;;;;;;;11.13;90.11;99118.34;5093079;28;20059;-74
2022/04/17 08:17:56;;;;;;;24.55;20.13;;;;;;;11.21;90.16;99122.22;5093226;28;20106;-73
2022/04/17 08:20:22;;;;;;;33.22;21.65;;;;;;;11.23;90.26;99122.69;5086254;28;20028;-76
2022/04/17 08:22:47;;;;;;;29.73;21.30;;;;;;;11.31;90.26;99110.56;5084956;28;20449;-75
2022/04/17 08:25:14;;;;;;;34.40;22.13;;;;;;;11.42;89.61;99108.13;5079930;28;20028;-74
2022/04/17 08:28:06;;;;;;;33.92;22.50;;;;;;;11.46;90.26;99111.03;5086110;28;20053;-72
2022/04/17 08:30:32;;;;;;;30.83;21.02;;;;;;;11.38;89.63;99101.56;5087420;28;20044;-71
2022/04/17 08:33:03;;;;;;;26.88;20.50;;;;;;;11.40;88.83;99120.84;5085219;28;20024;-74
2022/04/17 08:35:28;;;;;;;33.50;23.40;;;;;;;11.41;89.27;99119.66;5082667;28;20024;-72
2022/04/17 08:37:55;;;;;;;33.50;23.15;;;;;;;11.36;90.50;99121.53;5090713;28;20469;-74
2022/04/17 08:40:20;;;;;;;25.25;20.25;;;;;;;11.41;90.08;99117.69;5090027;28;20456;-75
2022/04/17 08:42:46;;;;;;;38.97;25.20;;;;;;;11.47;90.35;99110.69;5089356;28;20080;-75
2022/04/17 08:45:13;;;;;;;28.27;21.77;;;;;;;11.49;90.24;99110.34;5083012;28;20016;-76
2022/04/17 08:47:40;;;;;;;29.63;23.73;;;;;;;11.53;90.99;99114.06;5090207;28;20051;-78
2022/04/17 08:50:08;;;;;;;25.92;20.30;;;;;;;11.50;90.63;99112.78;5090091;28;20031;-76
2022/04/17 08:52:34;;;;;;;30.08;21.30;;;;;;;11.62;91.38;99106.38;5086970;28;20046;-75
2022/04/17 08:55:00;;;;;;;28.60;19.75;;;;;;;11.66;90.36;99104.50;5085370;28;20024;-75
2022/04/17 08:57:26;;;;;;;40.78;29.75;;;;;;;11.57;89.99;99108.59;5092993;28;20071;-71
2022/04/17 08:59:52;;;;;;;32.33;23.30;;;;;;;11.54;90.70;99103.69;5091329;28;20077;-73
2022/04/17 09:02:18;;;;;;;24.58;19.25;;;;;;;11.48;89.81;99095.50;5101294;28;20043;-75
2022/04/17 09:04:45;;;;;;;24.08;19.73;;;;;;;11.48;89.51;99094.72;5106436;28;20016;-76
2022/04/17 09:07:11;;;;;;;24.67;20.13;;;;;;;11.38;90.71;99094.00;5083532;28;20038;-75
2022/04/17 09:09:39;;;;;;;21.73;17.33;;;;;;;11.39;88.09;99094.81;5080479;28;20474;-76
2022/04/17 09:12:05;;;;;;;22.65;17.65;;;;;;;11.33;89.76;99088.63;5079706;28;20027;-75
2022/04/17 09:15:20;;;;;;;24.67;18.83;;;;;;;11.35;88.97;99091.09;5107161;28;20031;-76
2022/04/17 09:17:45;;;;;;;22.60;17.25;;;;;;;11.23;90.03;99089.09;5099166;28;20031;-77
2022/04/17 09:20:19;;;;;;;26.23;20.52;;;;;;;11.31;90.34;99090.97;5100519;28;20554;-76
2022/04/17 09:22:51;;;;;;;23.20;19.25;;;;;;;11.30;90.11;99071.72;5100436;28;20123;-76
2022/04/17 09:25:18;;;;;;;28.50;20.10;;;;;;;11.43;89.81;99078.13;5103838;28;20037;-76
2022/04/17 09:28:03;;;;;;;25.05;19.58;;;;;;;11.42;91.54;99079.28;5082375;28;20411;-76
2022/04/17 09:30:42;;;;;;;41.03;22.45;;;;;;;11.45;91.59;99084.19;5104731;28;20023;-73
2022/04/17 09:33:17;;;;;;;40.45;22.45;;;;;;;11.50;90.20;99084.78;5102316;28;20032;-70
2022/04/17 09:35:55;;;;;;;31.75;22.20;;;;;;;11.43;90.67;99072.53;5105277;28;20487;-71
2022/04/17 09:38:26;;;;;;;25.00;20.27;;;;;;;11.52;90.22;99082.47;5105435;28;20501;-70
2022/04/17 09:40:51;;;;;;;36.75;23.00;;;;;;;11.63;90.99;99079.16;5083665;28;20032;-70
2022/04/17 09:43:18;;;;;;;30.50;19.65;;;;;;;11.55;89.97;99078.13;5104609;28;20394;-69
2022/04/17 09:46:00;;;;;;;25.00;19.38;;;;;;;11.56;89.66;99074.16;5109377;28;20024;-71
2022/04/17 09:48:31;;;;;;;23.67;18.17;;;;;;;11.55;88.67;99061.31;5091789;28;20034;-71
2022/04/17 09:50:57;;;;;;;25.42;18.63;;;;;;;11.53;89.85;99055.25;5101562;28;20028;-71
2022/04/17 09:53:37;;;;;;;27.27;18.58;;;;;;;11.47;89.39;99059.47;5097035;28;20039;-71
2022/04/17 09:56:10;;;;;;;23.05;18.15;;;;;;;11.61;89.12;99047.88;5105975;27;20030;-71
2022/04/17 09:58:37;;;;;;;22.90;17.42;;;;;;;11.47;88.16;99042.69;5090736;28;20138;-70
2022/04/17 10:01:06;;;;;;;22.95;16.55;;;;;;;11.54;89.02;99037.28;5097497;28;20044;-69
2022/04/17 10:03:35;;;;;;;21.58;17.15;;;;;;;11.58;88.92;99032.59;5103656;28;20024;-70
2022/04/17 10:06:01;;;;;;;30.30;18.15;;;;;;;11.57;89.13;99030.97;5112313;28;20015;-70
2022/04/17 10:08:27;;;;;;;23.58;17.33;;;;;;;11.49;89.74;99031.94;5096489;28;20541;-70
2022/04/17 10:10:53;;;;;;;27.73;18.98;;;;;;;11.43;90.55;99024.94;5100791;28;20047;-72
2022/04/17 10:13:23;;;;;;;22.05;16.33;;;;;;;11.44;89.89;99020.94;5095097;28;20063;-72
2022/04/17 10:15:51;;;;;;;21.17;16.58;;;;;;;11.46;90.45;99011.03;5100513;28;20020;-71
2022/04/17 10:18:21;;;;;;;22.05;17.83;;;;;;;11.47;89.85;99020.28;5099170;28;20035;-71
2022/04/17 10:20:50;;;;;;;23.25;17.17;;;;;;;11.34;89.98;99023.09;5099730;28;20119;-73
2022/04/17 10:23:16;;;;;;;24.92;17.65;;;;;;;11.25;89.92;99014.00;5096291;28;20028;-71
2022/04/17 10:25:47;;;;;;;22.65;18.08;;;;;;;11.21;90.83;99015.84;5085672;28;20448;-71
2022/04/17 10:28:16;;;;;;;21.20;16.80;;;;;;;11.29;90.21;99025.31;5098901;28;20019;-72
2022/04/17 10:31:13;;;;;;;23.23;17.38;;;;;;;11.28;90.31;99015.25;5107781;28;20031;-75
2022/04/17 10:33:58;;;;;;;22.42;17.15;;;;;;;11.24;90.68;99017.94;5096228;28;20102;-73
2022/04/17 10:36:52;;;;;;;15.75;12.43;;;;;;;11.09;89.69;99023.06;5090807;28;20105;-72
2022/04/17 10:39:17;;;;;;;12.45;9.77;;;;;;;10.78;88.81;99024.44;5092860;28;20020;-72
2022/04/17 10:41:43;;;;;;;10.77;7.82;;;;;;;10.63;89.19;99044.72;5103078;28;20478;-72
2022/04/17 10:44:10;;;;;;;14.88;10.05;;;;;;;10.57;90.61;99040.47;5097552;28;20446;-72
2022/04/17 10:46:51;;;;;;;7.95;6.78;;;;;;;10.51;89.06;99037.91;5107879;28;20035;-73
2022/04/17 10:49:21;;;;;;;7.25;6.28;;;;;;;10.52;88.96;99044.31;5091880;28;20149;-73
2022/04/17 10:51:51;;;;;;;;;;;;;;;10.30;90.36;99046.31;5104761;28;20653;-71
2022/04/17 10:54:16;;;;;;;10.02;6.82;;;;;;;10.49;90.74;99045.81;5109942;28;19912;-73
2022/04/17 10:57:05;;;;;;;9.30;7.40;;;;;;;10.32;91.46;99034.78;5106710;28;20073;-72
2022/04/17 10:59:34;;;;;;;7.47;6.03;;;;;;;10.36;90.48;99044.09;5111588;28;20039;-74
2022/04/17 11:02:01;;;;;;;7.20;6.43;;;;;;;10.38;90.02;99050.19;5106216;28;20035;-72
2022/04/17 11:04:28;;;;;;;7.82;6.60;;;;;;;10.33;88.03;99042.00;5113600;28;20032;-73
2022/04/17 11:07:06;;;;;;;7.88;6.53;;;;;;;10.01;89.16;99063.97;5091443;28;20031;-71
2022/04/17 11:09:42;;;;;;;11.30;6.75;;;;;;;10.01;89.52;99061.19;5087090;28;20490;-75
2022/04/17 11:12:08;;;;;;;9.85;7.30;;;;;;;9.91;89.27;99054.88;5091472;28;20061;-73
2022/04/17 11:14:34;;;;;;;8.18;7.22;;;;;;;9.96;89.98;99056.66;5093736;28;20023;-73
2022/04/17 11:17:08;;;;;;;8.60;7.20;;;;;;;9.82;89.22;99060.50;5110013;28;20475;-73
2022/04/17 11:19:39;;;;;;;9.95;7.88;;;;;;;9.64;90.48;99050.63;5114324;28;20034;-73
2022/04/17 11:22:07;;;;;;;10.70;8.65;;;;;;;9.61;90.55;99052.13;5112416;28;20027;-73
2022/04/17 11:24:54;;;;;;;14.60;10.07;;;;;;;9.60;90.95;99039.31;5107029;28;20024;-73
2022/04/17 11:27:31;;;;;;;12.65;10.80;;;;;;;9.58;90.89;99036.06;5107619;28;20039;-73
2022/04/17 11:29:58;;;;;;;13.38;11.80;;;;;;;9.54;92.77;99032.31;5102032;28;20105;-73
2022/04/17 11:32:27;;;;;;;18.10;13.85;;;;;;;9.42;92.69;99024.66;5088724;28;20180;-73
2022/04/17 11:34:53;;;;;;;17.55;12.95;;;;;;;9.44;92.42;99018.75;5106440;28;20536;-73
2022/04/17 11:37:20;;;;;;;20.25;15.27;;;;;;;9.46;93.60;99022.00;5111441;28;20027;-73
2022/04/17 11:39:46;;;;;;;18.08;14.27;;;;;;;9.46;93.43;99022.81;5109137;28;20027;-73